createdAt,value
2022-10-15T00:02:46.177Z,5.06
2022-10-15T00:05:47.690Z,5.04
2022-10-15T00:08:49.250Z,5.02
2022-10-15T00:11:51.343Z,4.98
2022-10-15T00:14:52.925Z,5.03
2022-10-15T00:17:54.429Z,5.15
2022-10-15T00:20:56.010Z,5.21
2022-10-15T00:23:57.596Z,5.27
2022-10-15T00:26:59.127Z,5.21
2022-10-15T00:30:00.711Z,5.21
2022-10-15T00:33:02.213Z,5.28
2022-10-15T00:36:05.432Z,5.38
2022-10-15T00:39:07.257Z,5.58
2022-10-15T00:42:10.008Z,5.71
2022-10-15T00:45:12.194Z,5.79
2022-10-15T00:48:13.738Z,5.81
2022-10-15T00:51:15.625Z,5.86
2022-10-15T00:54:17.208Z,5.91
2022-10-15T00:57:18.721Z,5.93
2022-10-15T01:00:20.436Z,5.93
2022-10-15T01:03:22.219Z,5.87
2022-10-15T01:06:24.533Z,5.77
2022-10-15T01:09:26.389Z,5.73
2022-10-15T01:12:31.529Z,5.73
2022-10-15T01:15:39.273Z,5.74
2022-10-15T01:18:42.499Z,5.69
2022-10-15T01:22:04.381Z,5.72
2022-10-15T01:25:06.107Z,5.78
2022-10-15T01:28:22.906Z,5.84
2022-10-15T01:31:24.465Z,5.87
2022-10-15T01:34:47.848Z,5.85
2022-10-15T01:37:50.330Z,5.81
2022-10-15T01:40:51.804Z,5.71
2022-10-15T01:43:53.548Z,5.57
2022-10-15T01:47:23.049Z,5.52
2022-10-15T01:50:25.920Z,5.51
2022-10-15T01:53:27.802Z,5.45
2022-10-15T01:56:29.453Z,5.37
2022-10-15T01:59:31.623Z,5.34
2022-10-15T02:02:33.152Z,5.18
2022-10-15T02:05:44.137Z,5.07
2022-10-15T02:08:49.082Z,4.89
2022-10-15T02:12:01.472Z,4.84
2022-10-15T02:15:06.532Z,4.82
2022-10-15T02:18:26.766Z,4.84
2022-10-15T02:21:32.725Z,4.79
2022-10-15T02:24:55.592Z,4.80
2022-10-15T02:27:58.412Z,4.81
2022-10-15T02:31:02.120Z,4.77
2022-10-15T02:34:06.008Z,4.74
2022-10-15T02:37:07.653Z,4.79
2022-10-15T02:40:09.526Z,4.87
2022-10-15T02:43:12.184Z,4.99
2022-10-15T02:46:13.702Z,4.92
2022-10-15T02:49:17.889Z,4.86
2022-10-15T02:52:19.694Z,4.86
2022-10-15T02:55:21.472Z,4.96
2022-10-15T02:58:23.593Z,4.92
2022-10-15T03:01:26.119Z,4.92
2022-10-15T03:04:28.117Z,4.95
2022-10-15T03:07:30.037Z,4.88
2022-10-15T03:10:31.844Z,4.87
2022-10-15T03:13:38.241Z,4.91
2022-10-15T03:16:40.302Z,4.91
2022-10-15T03:19:42.113Z,4.95
2022-10-15T03:22:43.742Z,5.03
2022-10-15T03:25:45.306Z,5.05
2022-10-15T03:28:56.244Z,5.12
2022-10-15T03:32:10.056Z,5.19
2022-10-15T03:35:11.610Z,5.19
2022-10-15T03:38:13.316Z,5.17
2022-10-15T03:41:15.102Z,5.18
2022-10-15T03:44:17.889Z,5.13
2022-10-15T03:47:28.149Z,5.17
2022-10-15T03:50:31.453Z,5.20
2022-10-15T03:53:36.644Z,5.19
2022-10-15T03:56:38.242Z,5.19
2022-10-15T03:59:55.268Z,5.23
2022-10-15T04:02:59.457Z,5.27
2022-10-15T04:06:03.534Z,5.32
2022-10-15T04:09:05.925Z,5.36
2022-10-15T04:12:07.635Z,5.38
2022-10-15T04:15:09.523Z,5.42
2022-10-15T04:18:16.833Z,5.44
2022-10-15T04:21:19.605Z,5.49
2022-10-15T04:24:26.189Z,5.55
2022-10-15T04:27:27.988Z,5.56
2022-10-15T04:30:38.941Z,5.58
2022-10-15T04:33:43.633Z,5.59
2022-10-15T04:36:45.245Z,5.65
2022-10-15T04:39:50.170Z,5.69
2022-10-15T04:42:52.485Z,5.72
2022-10-15T04:46:00.260Z,5.73
2022-10-15T04:49:02.565Z,5.74
2022-10-15T04:52:04.200Z,5.77
2022-10-15T04:55:15.469Z,5.81
2022-10-15T04:58:17.030Z,5.84
2022-10-15T05:01:19.455Z,5.89
2022-10-15T05:04:35.327Z,5.89
2022-10-15T05:07:37.291Z,5.93
2022-10-15T05:10:38.892Z,5.97
2022-10-15T05:13:43.006Z,6.00
2022-10-15T05:16:45.127Z,6.03
2022-10-15T05:19:47.282Z,6.03
2022-10-15T05:22:53.184Z,6.07
2022-10-15T05:25:55.830Z,6.07
2022-10-15T05:29:00.469Z,6.08
2022-10-15T05:32:05.506Z,6.11
2022-10-15T05:35:07.258Z,6.14
2022-10-15T05:38:22.473Z,6.16
2022-10-15T05:41:24.260Z,6.19
2022-10-15T05:44:25.892Z,6.18
2022-10-15T05:47:27.466Z,6.22
2022-10-15T05:50:46.412Z,6.23
2022-10-15T05:53:57.062Z,6.25
2022-10-15T05:56:58.946Z,6.27
2022-10-15T06:00:00.441Z,6.30
2022-10-15T06:03:01.907Z,6.33
2022-10-15T06:06:03.489Z,6.34
2022-10-15T06:09:10.383Z,6.37
2022-10-15T06:12:11.865Z,6.38
2022-10-15T06:15:13.462Z,6.37
2022-10-15T06:18:16.274Z,6.40
2022-10-15T06:21:17.806Z,6.42
2022-10-15T06:24:19.284Z,6.41
2022-10-15T06:27:20.926Z,6.41
2022-10-15T06:30:22.523Z,6.42
2022-10-15T06:33:24.013Z,6.46
2022-10-15T06:36:25.948Z,6.46
2022-10-15T06:39:27.463Z,6.50
2022-10-15T06:42:28.952Z,6.51
2022-10-15T06:45:30.513Z,6.54
2022-10-15T06:48:32.807Z,6.57
2022-10-15T06:51:34.445Z,6.62
2022-10-15T06:54:35.946Z,6.63
2022-10-15T06:57:38.960Z,6.65
2022-10-15T07:00:40.470Z,6.64
2022-10-15T07:03:42.074Z,6.65
2022-10-15T07:06:43.865Z,6.70
2022-10-15T07:09:46.823Z,6.68
2022-10-15T07:12:48.508Z,6.72
2022-10-15T07:15:53.928Z,6.75
2022-10-15T07:18:55.534Z,6.75
2022-10-15T07:21:57.077Z,6.75
2022-10-15T07:24:58.652Z,6.78
2022-10-15T07:28:00.215Z,6.84
2022-10-15T07:31:02.235Z,6.87
2022-10-15T07:34:03.752Z,6.94
2022-10-15T07:37:05.339Z,6.96
2022-10-15T07:40:07.156Z,6.98
2022-10-15T07:43:08.942Z,6.98
2022-10-15T07:46:11.648Z,7.01
2022-10-15T07:49:13.204Z,7.04
2022-10-15T07:52:14.724Z,7.04
2022-10-15T07:55:16.289Z,7.06
2022-10-15T07:58:22.848Z,7.06
2022-10-15T08:01:24.596Z,7.09
2022-10-15T08:04:26.161Z,7.06
2022-10-15T08:07:27.722Z,7.14
2022-10-15T08:10:29.320Z,7.19
2022-10-15T08:13:30.874Z,7.30
2022-10-15T08:16:32.411Z,7.33
2022-10-15T08:19:34.012Z,7.35
2022-10-15T08:22:35.545Z,7.48
2022-10-15T08:25:37.057Z,7.51
2022-10-15T08:28:38.619Z,7.52
2022-10-15T08:31:40.344Z,7.57
2022-10-15T08:34:41.879Z,7.54
2022-10-15T08:37:43.433Z,7.61
2022-10-15T08:41:03.028Z,7.72
2022-10-15T08:44:04.836Z,7.80
2022-10-15T08:47:07.658Z,7.78
2022-10-15T08:50:32.551Z,7.66
2022-10-15T08:53:45.792Z,7.66
2022-10-15T08:56:47.704Z,7.73
2022-10-15T08:59:58.699Z,7.92
2022-10-15T09:03:18.630Z,8.06
2022-10-15T09:06:24.225Z,8.17
2022-10-15T09:09:39.742Z,8.37
2022-10-15T09:12:53.781Z,8.37
2022-10-15T09:16:05.740Z,8.35
2022-10-15T09:19:12.493Z,8.39
2022-10-15T09:22:15.474Z,8.55
2022-10-15T09:25:21.402Z,8.58
2022-10-15T09:28:25.796Z,8.38
2022-10-15T09:31:29.876Z,8.30
2022-10-15T09:34:34.812Z,8.16
2022-10-15T09:37:39.176Z,8.13
2022-10-15T09:40:40.700Z,8.41
2022-10-15T09:43:43.269Z,8.55
2022-10-15T09:46:45.502Z,8.57
2022-10-15T09:49:47.460Z,8.59
2022-10-15T09:52:56.297Z,8.52
2022-10-15T09:56:08.321Z,8.39
2022-10-15T09:59:17.794Z,8.33
2022-10-15T10:02:19.864Z,8.38
2022-10-15T10:05:31.956Z,8.56
2022-10-15T10:08:59.741Z,8.66
2022-10-15T10:12:02.361Z,8.76
2022-10-15T10:15:05.509Z,8.76
2022-10-15T10:18:09.931Z,8.88
2022-10-15T10:21:22.781Z,8.92
2022-10-15T10:24:28.429Z,8.91
2022-10-15T10:27:30.133Z,9.06
2022-10-15T10:30:57.871Z,9.05
2022-10-15T10:34:02.557Z,9.23
2022-10-15T10:37:05.080Z,9.42
2022-10-15T10:40:07.199Z,9.30
2022-10-15T10:43:18.790Z,9.21
2022-10-15T10:46:22.406Z,9.14
2022-10-15T10:49:30.445Z,9.66
2022-10-15T10:52:32.952Z,9.83
2022-10-15T10:55:37.761Z,10.84
2022-10-15T10:58:39.281Z,10.41
2022-10-15T11:01:40.821Z,9.69
2022-10-15T11:04:42.361Z,9.66
2022-10-15T11:07:43.910Z,9.57
2022-10-15T11:11:04.254Z,9.93
2022-10-15T11:14:17.803Z,10.62
2022-10-15T11:17:37.838Z,10.13
2022-10-15T11:20:59.715Z,9.68
2022-10-15T11:24:15.352Z,9.68
2022-10-15T11:27:28.436Z,10.00
2022-10-15T11:30:32.346Z,10.49
2022-10-15T11:33:49.236Z,11.56
2022-10-15T11:37:04.107Z,11.85
2022-10-15T11:40:19.423Z,12.18
2022-10-15T11:43:34.730Z,11.73
2022-10-15T11:46:36.227Z,11.49
2022-10-15T11:49:38.084Z,10.61
2022-10-15T11:52:45.472Z,10.41
2022-10-15T11:55:50.738Z,10.58
2022-10-15T11:59:04.912Z,11.28
2022-10-15T12:02:15.748Z,11.10
2022-10-15T12:05:18.331Z,10.48
2022-10-15T12:08:20.041Z,10.45
2022-10-15T12:11:27.368Z,10.17
2022-10-15T12:14:31.888Z,10.22
2022-10-15T12:17:46.124Z,10.44
2022-10-15T12:20:47.722Z,10.35
2022-10-15T12:23:49.194Z,10.35
2022-10-15T12:26:50.714Z,10.36
2022-10-15T12:30:05.206Z,10.36
2022-10-15T12:33:22.245Z,11.43
2022-10-15T12:36:28.169Z,11.11
2022-10-15T12:42:51.906Z,10.83
2022-10-15T12:45:55.432Z,12.04
2022-10-15T12:48:58.255Z,12.84
2022-10-15T12:52:00.117Z,12.19
2022-10-15T12:55:19.823Z,11.87
2022-10-15T12:58:37.528Z,11.88
2022-10-15T13:01:42.349Z,11.60
2022-10-15T13:04:43.981Z,11.32
2022-10-15T13:07:45.502Z,11.17
2022-10-15T13:10:48.763Z,10.91
2022-10-15T13:13:51.351Z,10.86
2022-10-15T13:16:52.926Z,10.88
2022-10-15T13:20:08.143Z,10.99
2022-10-15T13:23:30.159Z,11.08
2022-10-15T13:26:32.541Z,11.12
2022-10-15T13:29:34.419Z,11.14
2022-10-15T13:32:37.171Z,11.08
2022-10-15T13:35:38.713Z,10.97
2022-10-15T13:38:45.197Z,10.85
2022-10-15T13:41:48.720Z,10.77
2022-10-15T13:45:01.238Z,10.77
2022-10-15T13:48:03.369Z,10.70
2022-10-15T13:51:05.277Z,10.69
2022-10-15T13:54:16.853Z,10.67
2022-10-15T13:57:18.480Z,10.63
2022-10-15T14:00:21.500Z,10.29
2022-10-15T14:03:30.813Z,9.62
2022-10-15T14:06:33.555Z,9.03
2022-10-15T14:09:36.142Z,8.62
2022-10-15T14:12:37.700Z,8.05
2022-10-15T14:15:48.266Z,7.81
2022-10-15T14:18:51.030Z,7.63
2022-10-15T14:21:52.981Z,7.52
2022-10-15T14:24:54.888Z,7.48
2022-10-15T14:27:56.514Z,7.50
2022-10-15T14:30:58.263Z,7.56
2022-10-15T14:33:59.885Z,7.54
2022-10-15T14:37:01.983Z,7.55
2022-10-15T14:40:05.483Z,7.54
2022-10-15T14:43:13.560Z,7.45
2022-10-15T14:46:18.178Z,7.46
2022-10-15T14:49:23.866Z,7.50
2022-10-15T14:52:25.427Z,7.42
2022-10-15T14:55:28.721Z,7.40
2022-10-15T14:58:30.256Z,7.56
2022-10-15T15:01:33.928Z,7.70
2022-10-15T15:04:39.773Z,7.72
2022-10-15T15:07:41.312Z,7.73
2022-10-15T15:10:43.767Z,7.89
2022-10-15T15:13:45.824Z,8.43
2022-10-15T15:16:47.378Z,10.26
2022-10-15T15:19:49.862Z,10.81
2022-10-15T15:22:52.193Z,10.41
2022-10-15T15:25:54.240Z,11.06
2022-10-15T15:28:56.167Z,10.83
2022-10-15T15:31:57.703Z,11.05
2022-10-15T15:34:59.237Z,12.30
2022-10-15T15:38:00.789Z,12.44
2022-10-15T15:41:04.032Z,12.18
2022-10-15T15:44:07.439Z,12.41
2022-10-15T15:47:09.178Z,12.26
2022-10-15T15:50:10.738Z,11.56
2022-10-15T15:53:12.437Z,11.67
2022-10-15T15:56:14.075Z,11.13
2022-10-15T15:59:17.077Z,10.70
2022-10-15T16:02:19.473Z,10.53
2022-10-15T16:05:21.191Z,10.17
2022-10-15T16:08:22.730Z,9.85
2022-10-15T16:11:24.292Z,9.54
2022-10-15T16:14:25.816Z,9.37
2022-10-15T16:17:27.751Z,9.24
2022-10-15T16:20:29.425Z,9.09
2022-10-15T16:23:31.062Z,8.99
2022-10-15T16:26:33.032Z,8.90
2022-10-15T16:29:57.238Z,8.81
2022-10-15T16:32:58.852Z,8.79
2022-10-15T16:36:00.501Z,8.74
2022-10-15T16:39:02.201Z,8.74
2022-10-15T16:42:05.072Z,8.75
2022-10-15T16:45:06.933Z,8.70
2022-10-15T16:48:08.567Z,8.64
2022-10-15T16:51:10.266Z,8.63
2022-10-15T16:54:12.861Z,8.63
2022-10-15T16:57:14.437Z,8.62
2022-10-15T17:00:16.002Z,8.63
2022-10-15T17:03:17.538Z,8.59
2022-10-15T17:06:21.493Z,8.53
2022-10-15T17:09:23.783Z,8.50
2022-10-15T17:12:25.520Z,8.48
2022-10-15T17:15:27.476Z,8.48
2022-10-15T17:18:29.016Z,8.38
2022-10-15T17:21:31.433Z,8.33
2022-10-15T17:24:33.199Z,8.30
2022-10-15T17:27:35.738Z,8.30
2022-10-15T17:30:37.977Z,8.27
2022-10-15T17:33:40.137Z,8.28
2022-10-15T17:36:45.257Z,8.24
2022-10-15T17:39:47.026Z,8.19
2022-10-15T17:42:48.656Z,8.20
2022-10-15T17:45:50.230Z,8.12
2022-10-15T17:48:52.133Z,8.13
2022-10-15T17:51:54.593Z,8.04
2022-10-15T17:54:56.195Z,8.03
2022-10-15T17:58:00.891Z,8.03
2022-10-15T18:01:02.568Z,8.04
2022-10-15T18:04:05.889Z,7.99
2022-10-15T18:07:07.756Z,8.00
2022-10-15T18:10:11.458Z,8.04
2022-10-15T18:13:13.496Z,7.96
2022-10-15T18:16:18.237Z,7.90
2022-10-15T18:19:19.754Z,7.81
2022-10-15T18:22:21.301Z,7.76
2022-10-15T18:25:22.962Z,7.74
2022-10-15T18:28:24.513Z,7.69
2022-10-15T18:31:26.282Z,7.69
2022-10-15T18:34:27.966Z,7.63
2022-10-15T18:37:29.495Z,7.60
2022-10-15T18:40:40.932Z,7.59
2022-10-15T18:43:43.053Z,7.57
2022-10-15T18:46:45.513Z,7.46
2022-10-15T18:49:47.161Z,7.43
2022-10-15T18:52:48.933Z,7.37
2022-10-15T18:55:50.537Z,7.45
2022-10-15T18:58:55.012Z,7.42
2022-10-15T19:01:56.545Z,7.42
2022-10-15T19:04:58.125Z,7.43
2022-10-15T19:07:59.681Z,7.41
2022-10-15T19:11:08.570Z,7.37
2022-10-15T19:14:10.334Z,7.38
2022-10-15T19:17:12.835Z,7.30
2022-10-15T19:20:14.369Z,7.28
2022-10-15T19:23:15.965Z,7.28
2022-10-15T19:26:17.633Z,7.26
2022-10-15T19:29:19.601Z,7.22
2022-10-15T19:32:22.927Z,7.16
2022-10-15T19:35:24.469Z,7.15
2022-10-15T19:38:27.841Z,7.18
2022-10-15T19:41:29.371Z,7.18
2022-10-15T19:44:30.878Z,7.20
2022-10-15T19:47:32.368Z,7.23
2022-10-15T19:50:35.832Z,7.20
2022-10-15T19:53:43.465Z,7.27
2022-10-15T19:56:45.053Z,7.23
2022-10-15T19:59:46.633Z,7.24
2022-10-15T20:02:48.161Z,7.36
2022-10-15T20:05:49.837Z,7.44
2022-10-15T20:08:51.609Z,7.50
2022-10-15T20:11:53.129Z,7.49
2022-10-15T20:14:54.607Z,7.42
2022-10-15T20:17:56.086Z,7.38
2022-10-15T20:20:57.764Z,7.40
2022-10-15T20:23:59.676Z,7.43
2022-10-15T20:27:01.156Z,7.48
2022-10-15T20:30:02.862Z,7.59
2022-10-15T20:33:04.667Z,7.65
2022-10-15T20:36:07.460Z,7.69
2022-10-15T20:39:09.004Z,7.80
2022-10-15T20:42:10.503Z,7.89
2022-10-15T20:45:14.620Z,7.90
2022-10-15T20:48:20.395Z,7.92
2022-10-15T20:51:24.717Z,8.00
2022-10-15T20:54:29.230Z,8.03
2022-10-15T20:57:30.969Z,7.99
2022-10-15T21:00:32.522Z,7.67
2022-10-15T21:03:34.309Z,7.52
2022-10-15T21:06:35.877Z,7.43
2022-10-15T21:09:37.483Z,7.48
2022-10-15T21:12:39.133Z,7.54
2022-10-15T21:15:40.686Z,7.52
2022-10-15T21:18:42.707Z,7.48
2022-10-15T21:21:44.489Z,7.48
2022-10-15T21:24:46.069Z,7.53
2022-10-15T21:27:47.605Z,7.44
2022-10-15T21:30:49.398Z,7.38
2022-10-15T21:33:51.278Z,7.39
2022-10-15T21:36:54.559Z,7.38
2022-10-15T21:39:56.128Z,7.36
2022-10-15T21:42:58.884Z,7.30
2022-10-15T21:46:04.298Z,7.32
2022-10-15T21:49:08.431Z,7.35
2022-10-15T21:52:10.573Z,7.41
2022-10-15T21:55:12.449Z,7.41
2022-10-15T21:58:14.165Z,7.56
2022-10-15T22:01:21.972Z,7.61
2022-10-15T22:04:23.585Z,7.65
2022-10-15T22:07:25.378Z,7.66
2022-10-15T22:10:27.193Z,7.72
2022-10-15T22:13:28.877Z,7.67
2022-10-15T22:16:30.897Z,7.72
2022-10-15T22:19:32.452Z,7.62
2022-10-15T22:22:34.002Z,7.50
2022-10-15T22:25:35.561Z,7.44
2022-10-15T22:28:37.233Z,7.34
2022-10-15T22:31:38.765Z,7.35
2022-10-15T22:34:40.325Z,7.35
2022-10-15T22:37:41.968Z,7.41
2022-10-15T22:40:43.524Z,7.43
2022-10-15T22:43:45.182Z,7.40
2022-10-15T22:46:49.124Z,7.43
2022-10-15T22:49:50.781Z,7.29
2022-10-15T22:52:52.405Z,7.33
2022-10-15T22:55:57.544Z,7.36
2022-10-15T22:58:59.320Z,7.26
2022-10-15T23:02:00.938Z,7.23
2022-10-15T23:05:02.593Z,7.20
2022-10-15T23:08:04.248Z,7.16
2022-10-15T23:11:09.636Z,7.16
2022-10-15T23:14:12.460Z,7.20
2022-10-15T23:17:14.162Z,7.25
2022-10-15T23:20:15.762Z,7.20
2022-10-15T23:23:17.354Z,7.05
2022-10-15T23:26:18.904Z,6.98
2022-10-15T23:29:21.534Z,6.91
2022-10-15T23:32:23.112Z,6.83
2022-10-15T23:35:24.728Z,6.83
2022-10-15T23:38:26.405Z,6.81
2022-10-15T23:41:28.666Z,6.79
2022-10-15T23:44:30.227Z,6.78
2022-10-15T23:47:31.979Z,6.74
2022-10-15T23:50:34.342Z,6.77
2022-10-15T23:53:35.992Z,6.73
2022-10-15T23:56:37.564Z,6.72
2022-10-15T23:59:39.089Z,6.69
